sensor_id;sensor_type;location;lat;lon;timestamp;pressure;altitude;pressure_sealevel;temperature;humidity
21361;BME280;10839;43.206;23.550;2023-03-21T00:01:42;97059.09;;;14.14;52.72
21361;BME280;10839;43.206;23.550;2023-03-21T00:04:09;97062.50;;;14.03;52.99
21361;BME280;10839;43.206;23.550;2023-03-21T00:06:35;97062.69;;;14.08;52.83
21361;BME280;10839;43.206;23.550;2023-03-21T00:09:01;97064.06;;;14.18;52.86
21361;BME280;10839;43.206;23.550;2023-03-21T00:11:28;97049.88;;;14.22;51.98
21361;BME280;10839;43.206;23.550;2023-03-21T00:13:54;97050.56;;;14.11;51.84
21361;BME280;10839;43.206;23.550;2023-03-21T00:16:25;97051.28;;;14.00;52.65
21361;BME280;10839;43.206;23.550;2023-03-21T00:18:52;97052.97;;;13.94;53.19
21361;BME280;10839;43.206;23.550;2023-03-21T00:21:19;97047.34;;;13.96;52.13
21361;BME280;10839;43.206;23.550;2023-03-21T00:23:46;97046.75;;;13.94;51.75
21361;BME280;10839;43.206;23.550;2023-03-21T00:26:13;97050.06;;;13.96;51.07
21361;BME280;10839;43.206;23.550;2023-03-21T00:28:41;97050.50;;;13.93;50.94
21361;BME280;10839;43.206;23.550;2023-03-21T00:31:08;97050.94;;;13.90;52.77
21361;BME280;10839;43.206;23.550;2023-03-21T00:33:35;97046.16;;;13.92;52.73
21361;BME280;10839;43.206;23.550;2023-03-21T00:36:04;97037.63;;;13.88;53.02
21361;BME280;10839;43.206;23.550;2023-03-21T00:38:32;97044.47;;;13.91;53.46
21361;BME280;10839;43.206;23.550;2023-03-21T00:40:58;97043.44;;;13.92;53.76
21361;BME280;10839;43.206;23.550;2023-03-21T00:43:25;97040.78;;;13.85;54.24
21361;BME280;10839;43.206;23.550;2023-03-21T00:45:56;97042.22;;;13.88;54.02
21361;BME280;10839;43.206;23.550;2023-03-21T00:48:26;97051.03;;;14.08;53.26
21361;BME280;10839;43.206;23.550;2023-03-21T00:50:54;97048.59;;;14.00;53.82
21361;BME280;10839;43.206;23.550;2023-03-21T00:53:22;97056.44;;;13.77;54.71
21361;BME280;10839;43.206;23.550;2023-03-21T00:55:48;97045.09;;;13.93;54.86
21361;BME280;10839;43.206;23.550;2023-03-21T00:58:15;97045.03;;;13.99;54.23
21361;BME280;10839;43.206;23.550;2023-03-21T01:00:41;97041.75;;;13.91;54.70
21361;BME280;10839;43.206;23.550;2023-03-21T01:03:10;97043.31;;;13.80;55.16
21361;BME280;10839;43.206;23.550;2023-03-21T01:05:41;97037.47;;;13.83;55.24
21361;BME280;10839;43.206;23.550;2023-03-21T01:08:27;97038.47;;;13.89;54.79
21361;BME280;10839;43.206;23.550;2023-03-21T01:10:53;97041.25;;;13.76;55.22
21361;BME280;10839;43.206;23.550;2023-03-21T01:13:22;97039.78;;;13.80;55.20
21361;BME280;10839;43.206;23.550;2023-03-21T01:15:53;97046.16;;;13.92;53.79
21361;BME280;10839;43.206;23.550;2023-03-21T01:18:23;97046.19;;;13.85;54.61
21361;BME280;10839;43.206;23.550;2023-03-21T01:20:50;97046.31;;;13.97;54.24
21361;BME280;10839;43.206;23.550;2023-03-21T01:23:16;97050.34;;;14.12;52.91
21361;BME280;10839;43.206;23.550;2023-03-21T01:25:42;97045.03;;;13.99;53.26
21361;BME280;10839;43.206;23.550;2023-03-21T01:28:09;97039.47;;;14.19;52.74
21361;BME280;10839;43.206;23.550;2023-03-21T01:30:35;97029.47;;;14.26;52.71
21361;BME280;10839;43.206;23.550;2023-03-21T01:33:01;97034.06;;;14.19;52.64
21361;BME280;10839;43.206;23.550;2023-03-21T01:35:28;97042.13;;;14.01;53.61
21361;BME280;10839;43.206;23.550;2023-03-21T01:37:55;97038.28;;;14.15;53.22
21361;BME280;10839;43.206;23.550;2023-03-21T01:40:24;97032.94;;;14.33;52.91
21361;BME280;10839;43.206;23.550;2023-03-21T01:42:57;97044.13;;;14.12;53.55
21361;BME280;10839;43.206;23.550;2023-03-21T01:46:05;97037.38;;;14.21;53.51
21361;BME280;10839;43.206;23.550;2023-03-21T01:51:43;97027.00;;;13.93;54.13
21361;BME280;10839;43.206;23.550;2023-03-21T01:54:16;97037.41;;;13.90;54.44
21361;BME280;10839;43.206;23.550;2023-03-21T01:56:45;97042.72;;;14.03;54.36
21361;BME280;10839;43.206;23.550;2023-03-21T01:59:33;97024.47;;;14.23;53.24
21361;BME280;10839;43.206;23.550;2023-03-21T02:02:31;97028.81;;;13.99;54.14
21361;BME280;10839;43.206;23.550;2023-03-21T02:05:18;97032.78;;;13.97;54.03
21361;BME280;10839;43.206;23.550;2023-03-21T02:07:48;97021.34;;;14.26;52.63
21361;BME280;10839;43.206;23.550;2023-03-21T02:10:18;97017.03;;;14.43;52.43
21361;BME280;10839;43.206;23.550;2023-03-21T02:12:48;97022.13;;;14.33;52.73
21361;BME280;10839;43.206;23.550;2023-03-21T02:15:15;97024.06;;;14.26;53.18
21361;BME280;10839;43.206;23.550;2023-03-21T02:26:41;97024.66;;;14.53;51.73
21361;BME280;10839;43.206;23.550;2023-03-21T02:34:38;97028.25;;;14.22;54.13
21361;BME280;10839;43.206;23.550;2023-03-21T02:37:43;97024.34;;;13.87;54.79
21361;BME280;10839;43.206;23.550;2023-03-21T02:40:41;97025.38;;;13.86;55.24
21361;BME280;10839;43.206;23.550;2023-03-21T02:46:18;97017.81;;;14.19;53.36
21361;BME280;10839;43.206;23.550;2023-03-21T02:49:19;97012.38;;;14.32;52.98
21361;BME280;10839;43.206;23.550;2023-03-21T02:51:43;97024.31;;;14.18;53.67
21361;BME280;10839;43.206;23.550;2023-03-21T02:54:15;97013.75;;;14.10;53.85
21361;BME280;10839;43.206;23.550;2023-03-21T02:56:44;97014.50;;;13.92;54.89
21361;BME280;10839;43.206;23.550;2023-03-21T02:59:12;97021.00;;;13.85;55.02
21361;BME280;10839;43.206;23.550;2023-03-21T03:01:39;97023.94;;;13.83;54.97
21361;BME280;10839;43.206;23.550;2023-03-21T03:04:24;97033.66;;;13.91;54.77
21361;BME280;10839;43.206;23.550;2023-03-21T03:15:23;97011.44;;;13.89;54.68
21361;BME280;10839;43.206;23.550;2023-03-21T03:23:49;96999.19;;;13.49;56.67
21361;BME280;10839;43.206;23.550;2023-03-21T03:27:04;96999.88;;;13.38;56.72
21361;BME280;10839;43.206;23.550;2023-03-21T03:29:07;97000.13;;;13.30;57.73
21361;BME280;10839;43.206;23.550;2023-03-21T03:31:45;96994.47;;;13.38;57.37
21361;BME280;10839;43.206;23.550;2023-03-21T03:34:15;96992.56;;;13.45;56.58
21361;BME280;10839;43.206;23.550;2023-03-21T03:36:46;96992.09;;;13.17;57.77
21361;BME280;10839;43.206;23.550;2023-03-21T03:39:17;96991.34;;;13.34;57.30
21361;BME280;10839;43.206;23.550;2023-03-21T03:42:00;96985.47;;;13.50;56.56
21361;BME280;10839;43.206;23.550;2023-03-21T03:44:34;96988.50;;;13.23;57.44
21361;BME280;10839;43.206;23.550;2023-03-21T03:47:08;96987.22;;;13.32;57.46
21361;BME280;10839;43.206;23.550;2023-03-21T03:49:42;96991.84;;;13.56;56.24
21361;BME280;10839;43.206;23.550;2023-03-21T03:52:21;96979.47;;;13.04;57.37
21361;BME280;10839;43.206;23.550;2023-03-21T03:54:58;96986.97;;;13.02;57.29
21361;BME280;10839;43.206;23.550;2023-03-21T03:57:29;96982.38;;;13.03;57.35
21361;BME280;10839;43.206;23.550;2023-03-21T03:59:55;96989.91;;;12.74;58.33
21361;BME280;10839;43.206;23.550;2023-03-21T04:02:42;96986.56;;;12.85;58.24
21361;BME280;10839;43.206;23.550;2023-03-21T04:05:09;96989.09;;;12.80;58.18
21361;BME280;10839;43.206;23.550;2023-03-21T04:07:35;96983.34;;;12.57;59.24
21361;BME280;10839;43.206;23.550;2023-03-21T04:10:01;96994.22;;;12.95;58.20
21361;BME280;10839;43.206;23.550;2023-03-21T04:12:30;96993.44;;;12.81;58.29
21361;BME280;10839;43.206;23.550;2023-03-21T04:15:12;96984.78;;;12.53;59.69
21361;BME280;10839;43.206;23.550;2023-03-21T04:17:55;96998.22;;;12.73;58.55
21361;BME280;10839;43.206;23.550;2023-03-21T04:20:22;96993.72;;;12.60;58.56
21361;BME280;10839;43.206;23.550;2023-03-21T04:22:49;96991.63;;;12.49;59.30
21361;BME280;10839;43.206;23.550;2023-03-21T04:25:17;96993.72;;;12.60;58.62
21361;BME280;10839;43.206;23.550;2023-03-21T04:27:43;96993.72;;;12.60;58.35
21361;BME280;10839;43.206;23.550;2023-03-21T04:30:29;96993.34;;;12.44;59.37
21361;BME280;10839;43.206;23.550;2023-03-21T04:33:08;97007.84;;;12.56;58.63
21361;BME280;10839;43.206;23.550;2023-03-21T04:35:35;97000.78;;;12.48;58.95
21361;BME280;10839;43.206;23.550;2023-03-21T04:38:03;97004.13;;;12.50;59.19
21361;BME280;10839;43.206;23.550;2023-03-21T04:40:30;96994.72;;;12.66;58.28
21361;BME280;10839;43.206;23.550;2023-03-21T04:42:57;96993.25;;;12.76;57.84
21361;BME280;10839;43.206;23.550;2023-03-21T04:45:26;96998.69;;;12.63;58.01
21361;BME280;10839;43.206;23.550;2023-03-21T04:47:52;97003.56;;;13.06;56.70
21361;BME280;10839;43.206;23.550;2023-03-21T04:50:18;97002.09;;;12.97;56.99
21361;BME280;10839;43.206;23.550;2023-03-21T04:52:44;97010.25;;;12.83;57.68
21361;BME280;10839;43.206;23.550;2023-03-21T04:55:10;97014.69;;;13.29;56.34
21361;BME280;10839;43.206;23.550;2023-03-21T04:57:38;97006.56;;;13.66;54.74
21361;BME280;10839;43.206;23.550;2023-03-21T05:00:05;97005.38;;;13.62;54.43
21361;BME280;10839;43.206;23.550;2023-03-21T05:02:37;97002.44;;;14.69;51.88
21361;BME280;10839;43.206;23.550;2023-03-21T05:05:05;97004.28;;;15.22;50.08
21361;BME280;10839;43.206;23.550;2023-03-21T05:07:37;97009.38;;;16.08;48.13
21361;BME280;10839;43.206;23.550;2023-03-21T05:10:04;97009.91;;;16.28;47.13
21361;BME280;10839;43.206;23.550;2023-03-21T05:12:31;97010.88;;;15.63;47.78
21361;BME280;10839;43.206;23.550;2023-03-21T05:14:58;97008.94;;;15.81;47.60
21361;BME280;10839;43.206;23.550;2023-03-21T05:17:24;97004.63;;;16.79;45.20
21361;BME280;10839;43.206;23.550;2023-03-21T05:19:55;97003.31;;;16.93;44.21
21361;BME280;10839;43.206;23.550;2023-03-21T05:22:22;97014.81;;;17.46;43.25
21361;BME280;10839;43.206;23.550;2023-03-21T05:24:51;97004.81;;;17.12;43.46
21361;BME280;10839;43.206;23.550;2023-03-21T05:27:38;97012.63;;;17.09;43.46
21361;BME280;10839;43.206;23.550;2023-03-21T05:30:16;97016.19;;;17.09;43.62
21361;BME280;10839;43.206;23.550;2023-03-21T05:32:43;97025.09;;;17.44;42.73
21361;BME280;10839;43.206;23.550;2023-03-21T05:35:11;97018.84;;;17.32;42.98
21361;BME280;10839;43.206;23.550;2023-03-21T05:37:37;97010.31;;;17.40;43.04
21361;BME280;10839;43.206;23.550;2023-03-21T05:40:05;97015.06;;;16.18;45.42
21361;BME280;10839;43.206;23.550;2023-03-21T05:42:32;97016.19;;;16.40;45.31
21361;BME280;10839;43.206;23.550;2023-03-21T05:44:59;97018.16;;;16.33;45.42
21361;BME280;10839;43.206;23.550;2023-03-21T05:47:31;97016.06;;;16.35;45.46
21361;BME280;10839;43.206;23.550;2023-03-21T05:49:59;97010.19;;;16.84;44.49
21361;BME280;10839;43.206;23.550;2023-03-21T05:52:25;97009.22;;;16.90;44.31
21361;BME280;10839;43.206;23.550;2023-03-21T05:54:53;97005.84;;;17.34;43.87
21361;BME280;10839;43.206;23.550;2023-03-21T05:57:22;96999.47;;;17.17;43.91
21361;BME280;10839;43.206;23.550;2023-03-21T06:00:01;97015.88;;;17.73;42.86
21361;BME280;10839;43.206;23.550;2023-03-21T06:02:29;97004.19;;;17.33;43.65
21361;BME280;10839;43.206;23.550;2023-03-21T06:05:00;97010.25;;;17.12;44.24
21361;BME280;10839;43.206;23.550;2023-03-21T06:07:26;97014.69;;;18.26;42.48
21361;BME280;10839;43.206;23.550;2023-03-21T06:09:54;97007.97;;;18.45;41.55
21361;BME280;10839;43.206;23.550;2023-03-21T06:12:20;97006.63;;;18.64;41.49
21361;BME280;10839;43.206;23.550;2023-03-21T06:15:21;97006.72;;;19.93;39.17
21361;BME280;10839;43.206;23.550;2023-03-21T06:17:54;97007.84;;;20.51;38.40
21361;BME280;10839;43.206;23.550;2023-03-21T06:20:20;97009.28;;;22.18;36.19
21361;BME280;10839;43.206;23.550;2023-03-21T06:22:50;97000.03;;;22.69;34.84
21361;BME280;10839;43.206;23.550;2023-03-21T06:25:16;96998.75;;;23.61;33.32
21361;BME280;10839;43.206;23.550;2023-03-21T06:27:42;97001.06;;;25.08;32.04
21361;BME280;10839;43.206;23.550;2023-03-21T06:30:10;97004.88;;;25.41;30.90
21361;BME280;10839;43.206;23.550;2023-03-21T06:32:50;96997.84;;;26.38;29.59
21361;BME280;10839;43.206;23.550;2023-03-21T06:35:17;96998.09;;;26.92;28.98
21361;BME280;10839;43.206;23.550;2023-03-21T06:37:43;97004.97;;;27.40;27.92
21361;BME280;10839;43.206;23.550;2023-03-21T06:40:11;97003.53;;;28.82;26.34
21361;BME280;10839;43.206;23.550;2023-03-21T06:42:38;97003.25;;;27.99;26.99
21361;BME280;10839;43.206;23.550;2023-03-21T06:45:10;96999.88;;;27.61;27.46
21361;BME280;10839;43.206;23.550;2023-03-21T06:47:37;97000.81;;;27.24;27.94
21361;BME280;10839;43.206;23.550;2023-03-21T06:50:08;97002.47;;;26.24;28.58
21361;BME280;10839;43.206;23.550;2023-03-21T06:52:41;97009.56;;;27.31;27.87
21361;BME280;10839;43.206;23.550;2023-03-21T06:55:07;97011.84;;;28.11;26.77
21361;BME280;10839;43.206;23.550;2023-03-21T06:57:33;97011.56;;;29.28;25.58
21361;BME280;10839;43.206;23.550;2023-03-21T07:00:00;97005.72;;;29.68;25.42
21361;BME280;10839;43.206;23.550;2023-03-21T07:02:27;97012.38;;;28.84;25.88
21361;BME280;10839;43.206;23.550;2023-03-21T07:05:02;97014.38;;;28.21;26.76
21361;BME280;10839;43.206;23.550;2023-03-21T07:07:29;97016.97;;;27.49;27.28
21361;BME280;10839;43.206;23.550;2023-03-21T07:09:56;97012.53;;;27.48;27.06
21361;BME280;10839;43.206;23.550;2023-03-21T07:12:23;97011.31;;;27.82;27.07
21361;BME280;10839;43.206;23.550;2023-03-21T07:15:03;97020.97;;;27.71;27.33
21361;BME280;10839;43.206;23.550;2023-03-21T07:17:30;97023.31;;;27.36;27.54
21361;BME280;10839;43.206;23.550;2023-03-21T07:19:57;97025.47;;;27.80;27.14
21361;BME280;10839;43.206;23.550;2023-03-21T07:22:22;97033.00;;;28.42;26.46
21361;BME280;10839;43.206;23.550;2023-03-21T07:24:48;97024.53;;;29.80;25.46
21361;BME280;10839;43.206;23.550;2023-03-21T07:27:15;97028.31;;;30.32;24.92
21361;BME280;10839;43.206;23.550;2023-03-21T07:29:41;97029.81;;;29.59;25.56
21361;BME280;10839;43.206;23.550;2023-03-21T07:32:09;97032.53;;;28.76;26.44
21361;BME280;10839;43.206;23.550;2023-03-21T07:34:36;97029.84;;;27.54;27.29
21361;BME280;10839;43.206;23.550;2023-03-21T07:37:03;97031.22;;;26.92;28.03
21361;BME280;10839;43.206;23.550;2023-03-21T07:39:31;97037.72;;;25.85;29.51
21361;BME280;10839;43.206;23.550;2023-03-21T07:41:59;97026.09;;;24.83;30.41
21361;BME280;10839;43.206;23.550;2023-03-21T07:44:35;97026.66;;;23.98;31.70
21361;BME280;10839;43.206;23.550;2023-03-21T07:47:03;97020.00;;;23.40;32.80
21361;BME280;10839;43.206;23.550;2023-03-21T07:49:31;97030.16;;;23.15;33.51
21361;BME280;10839;43.206;23.550;2023-03-21T07:51:56;97036.22;;;24.06;32.40
21361;BME280;10839;43.206;23.550;2023-03-21T07:54:24;97033.97;;;23.54;33.33
21361;BME280;10839;43.206;23.550;2023-03-21T07:56:50;97041.50;;;23.92;32.62
21361;BME280;10839;43.206;23.550;2023-03-21T07:59:16;97035.03;;;23.58;33.33
21361;BME280;10839;43.206;23.550;2023-03-21T08:01:42;97040.00;;;23.51;33.35
21361;BME280;10839;43.206;23.550;2023-03-21T08:04:07;97043.13;;;23.98;32.49
21361;BME280;10839;43.206;23.550;2023-03-21T08:06:33;97054.34;;;23.03;33.57
21361;BME280;10839;43.206;23.550;2023-03-21T08:08:59;97047.31;;;21.95;35.69
21361;BME280;10839;43.206;23.550;2023-03-21T08:11:26;97046.59;;;22.44;35.54
21361;BME280;10839;43.206;23.550;2023-03-21T08:13:56;97044.41;;;22.46;35.89
21361;BME280;10839;43.206;23.550;2023-03-21T08:16:22;97050.47;;;22.48;35.77
21361;BME280;10839;43.206;23.550;2023-03-21T08:18:48;97043.75;;;21.99;36.55
21361;BME280;10839;43.206;23.550;2023-03-21T08:21:14;97040.50;;;21.97;37.10
21361;BME280;10839;43.206;23.550;2023-03-21T08:23:41;97045.31;;;22.87;35.71
21361;BME280;10839;43.206;23.550;2023-03-21T08:26:08;97047.78;;;22.73;36.04
21361;BME280;10839;43.206;23.550;2023-03-21T08:28:35;97039.25;;;22.75;36.05
21361;BME280;10839;43.206;23.550;2023-03-21T08:31:08;97044.47;;;22.87;36.05
21361;BME280;10839;43.206;23.550;2023-03-21T08:33:35;97032.31;;;22.07;36.98
21361;BME280;10839;43.206;23.550;2023-03-21T08:36:00;97035.59;;;22.24;37.01
21361;BME280;10839;43.206;23.550;2023-03-21T08:38:26;97029.66;;;22.62;36.57
21361;BME280;10839;43.206;23.550;2023-03-21T08:40:59;97028.47;;;22.08;37.22
21361;BME280;10839;43.206;23.550;2023-03-21T08:43:26;97037.19;;;21.95;37.70
21361;BME280;10839;43.206;23.550;2023-03-21T08:45:53;97044.03;;;21.36;38.98
21361;BME280;10839;43.206;23.550;2023-03-21T08:48:18;97049.41;;;21.73;38.38
21361;BME280;10839;43.206;23.550;2023-03-21T08:50:44;97048.91;;;21.29;38.90
21361;BME280;10839;43.206;23.550;2023-03-21T08:53:12;97038.28;;;20.96;39.76
21361;BME280;10839;43.206;23.550;2023-03-21T08:55:38;97022.44;;;20.98;39.47
21361;BME280;10839;43.206;23.550;2023-03-21T08:58:04;97026.31;;;21.02;39.80
21361;BME280;10839;43.206;23.550;2023-03-21T09:00:31;97035.53;;;20.27;41.53
21361;BME280;10839;43.206;23.550;2023-03-21T09:02:57;97033.50;;;20.50;40.87
21361;BME280;10839;43.206;23.550;2023-03-21T09:05:24;97035.88;;;20.68;40.53
21361;BME280;10839;43.206;23.550;2023-03-21T09:07:52;97021.50;;;20.51;40.64
21361;BME280;10839;43.206;23.550;2023-03-21T09:10:21;97028.28;;;20.80;40.31
21361;BME280;10839;43.206;23.550;2023-03-21T09:12:49;97034.66;;;20.54;41.20
21361;BME280;10839;43.206;23.550;2023-03-21T09:15:15;97030.13;;;19.84;42.47
21361;BME280;10839;43.206;23.550;2023-03-21T09:17:42;97025.69;;;20.31;41.69
21361;BME280;10839;43.206;23.550;2023-03-21T09:20:13;97021.91;;;20.33;41.82
21361;BME280;10839;43.206;23.550;2023-03-21T09:22:50;97018.88;;;20.61;41.70
21361;BME280;10839;43.206;23.550;2023-03-21T09:25:18;97014.34;;;21.18;40.12
21361;BME280;10839;43.206;23.550;2023-03-21T09:27:45;97015.72;;;19.67;43.34
21361;BME280;10839;43.206;23.550;2023-03-21T09:30:13;97018.38;;;20.10;42.75
21361;BME280;10839;43.206;23.550;2023-03-21T09:32:40;97013.22;;;20.41;42.10
21361;BME280;10839;43.206;23.550;2023-03-21T09:35:06;97012.59;;;20.33;42.57
21361;BME280;10839;43.206;23.550;2023-03-21T09:37:34;97003.41;;;20.45;42.34
21361;BME280;10839;43.206;23.550;2023-03-21T09:40:06;97009.16;;;20.80;41.53
21361;BME280;10839;43.206;23.550;2023-03-21T09:42:46;97004.50;;;21.17;40.70
21361;BME280;10839;43.206;23.550;2023-03-21T09:45:21;97004.53;;;20.49;41.89
21361;BME280;10839;43.206;23.550;2023-03-21T09:47:52;97011.88;;;20.80;41.59
21361;BME280;10839;43.206;23.550;2023-03-21T09:50:23;97015.06;;;20.08;42.86
21361;BME280;10839;43.206;23.550;2023-03-21T09:52:56;97011.81;;;20.11;43.38
21361;BME280;10839;43.206;23.550;2023-03-21T09:55:26;97005.28;;;20.12;42.94
21361;BME280;10839;43.206;23.550;2023-03-21T09:58:03;97009.59;;;20.67;42.02
21361;BME280;10839;43.206;23.550;2023-03-21T10:00:43;97010.63;;;20.92;41.56
21361;BME280;10839;43.206;23.550;2023-03-21T10:03:31;97003.50;;;21.38;41.00
21361;BME280;10839;43.206;23.550;2023-03-21T10:06:09;97000.53;;;22.36;39.09
21361;BME280;10839;43.206;23.550;2023-03-21T10:08:46;96998.38;;;22.58;38.80
21361;BME280;10839;43.206;23.550;2023-03-21T10:14:00;96991.16;;;23.28;37.17
21361;BME280;10839;43.206;23.550;2023-03-21T10:16:29;96978.03;;;23.05;36.57
21361;BME280;10839;43.206;23.550;2023-03-21T10:18:56;96973.88;;;23.27;36.72
21361;BME280;10839;43.206;23.550;2023-03-21T10:21:26;96978.47;;;23.47;36.30
21361;BME280;10839;43.206;23.550;2023-03-21T10:23:54;96982.28;;;23.56;36.52
21361;BME280;10839;43.206;23.550;2023-03-21T10:26:24;96979.72;;;22.50;37.66
21361;BME280;10839;43.206;23.550;2023-03-21T10:28:54;96975.16;;;23.55;36.77
21361;BME280;10839;43.206;23.550;2023-03-21T10:31:25;96966.75;;;23.06;37.16
21361;BME280;10839;43.206;23.550;2023-03-21T10:34:01;96970.88;;;23.19;37.15
21361;BME280;10839;43.206;23.550;2023-03-21T10:36:30;96962.72;;;22.68;38.40
21361;BME280;10839;43.206;23.550;2023-03-21T10:39:04;96973.13;;;22.71;38.05
21361;BME280;10839;43.206;23.550;2023-03-21T10:41:32;96961.03;;;22.83;38.08
21361;BME280;10839;43.206;23.550;2023-03-21T10:44:08;96955.53;;;22.98;37.12
21361;BME280;10839;43.206;23.550;2023-03-21T10:46:36;96954.47;;;22.78;37.51
21361;BME280;10839;43.206;23.550;2023-03-21T10:49:02;96946.81;;;22.65;37.97
21361;BME280;10839;43.206;23.550;2023-03-21T10:51:34;96950.09;;;22.32;38.69
21361;BME280;10839;43.206;23.550;2023-03-21T10:54:13;96945.13;;;22.39;38.63
21361;BME280;10839;43.206;23.550;2023-03-21T10:56:56;96927.59;;;22.40;38.75
21361;BME280;10839;43.206;23.550;2023-03-21T10:59:24;96929.25;;;22.66;38.70
21361;BME280;10839;43.206;23.550;2023-03-21T11:01:53;96912.78;;;22.51;38.59
21361;BME280;10839;43.206;23.550;2023-03-21T11:04:25;96920.41;;;22.95;38.13
21361;BME280;10839;43.206;23.550;2023-03-21T11:06:57;96933.09;;;22.30;38.89
21361;BME280;10839;43.206;23.550;2023-03-21T11:09:41;96940.22;;;22.36;39.44
21361;BME280;10839;43.206;23.550;2023-03-21T11:12:10;96933.09;;;22.40;39.31
21361;BME280;10839;43.206;23.550;2023-03-21T11:14:44;96936.94;;;22.54;39.31
21361;BME280;10839;43.206;23.550;2023-03-21T11:19:57;96920.88;;;23.22;37.77
21361;BME280;10839;43.206;23.550;2023-03-21T11:22:29;96918.81;;;22.43;39.51
21361;BME280;10839;43.206;23.550;2023-03-21T11:25:04;96920.25;;;23.45;38.19
21361;BME280;10839;43.206;23.550;2023-03-21T11:27:32;96925.66;;;23.65;37.75
21361;BME280;10839;43.206;23.550;2023-03-21T11:30:01;96916.63;;;24.03;37.22
21361;BME280;10839;43.206;23.550;2023-03-21T11:32:34;96902.13;;;23.87;36.60
21361;BME280;10839;43.206;23.550;2023-03-21T11:35:03;96904.66;;;23.35;37.13
21361;BME280;10839;43.206;23.550;2023-03-21T11:40:22;96912.56;;;23.42;37.74
21361;BME280;10839;43.206;23.550;2023-03-21T11:42:56;96901.78;;;24.04;37.08
21361;BME280;10839;43.206;23.550;2023-03-21T11:45:58;96906.91;;;23.77;36.91
21361;BME280;10839;43.206;23.550;2023-03-21T11:48:24;96898.28;;;23.45;36.99
21361;BME280;10839;43.206;23.550;2023-03-21T11:50:58;96900.97;;;22.71;38.78
21361;BME280;10839;43.206;23.550;2023-03-21T11:56:31;96904.66;;;23.35;37.72
21361;BME280;10839;43.206;23.550;2023-03-21T12:05:32;96886.41;;;22.91;38.71
21361;BME280;10839;43.206;23.550;2023-03-21T12:11:01;96884.63;;;23.20;38.39
21361;BME280;10839;43.206;23.550;2023-03-21T12:13:40;96871.16;;;23.28;38.17
21361;BME280;10839;43.206;23.550;2023-03-21T12:18:58;96876.34;;;23.35;38.50
21361;BME280;10839;43.206;23.550;2023-03-21T12:21:33;96884.63;;;23.20;37.94
21361;BME280;10839;43.206;23.550;2023-03-21T12:24:05;96872.78;;;23.34;37.88
21361;BME280;10839;43.206;23.550;2023-03-21T12:26:55;96874.34;;;22.76;38.24
21361;BME280;10839;43.206;23.550;2023-03-21T12:32:20;96862.88;;;22.19;39.57
21361;BME280;10839;43.206;23.550;2023-03-21T12:35:15;96863.94;;;22.73;39.02
21361;BME280;10839;43.206;23.550;2023-03-21T12:38:07;96862.28;;;22.72;38.83
21361;BME280;10839;43.206;23.550;2023-03-21T12:41:03;96854.22;;;23.01;37.96
21361;BME280;10839;43.206;23.550;2023-03-21T12:46:18;96846.13;;;22.46;38.94
21361;BME280;10839;43.206;23.550;2023-03-21T12:49:27;96845.38;;;22.00;39.79
21361;BME280;10839;43.206;23.550;2023-03-21T12:52:10;96844.25;;;21.96;39.87
21361;BME280;10839;43.206;23.550;2023-03-21T12:54:41;96838.16;;;21.29;40.67
21361;BME280;10839;43.206;23.550;2023-03-21T12:57:16;96837.69;;;21.77;39.88
21361;BME280;10839;43.206;23.550;2023-03-21T13:02:46;96832.53;;;20.94;41.22
21361;BME280;10839;43.206;23.550;2023-03-21T13:07:59;96825.88;;;20.75;41.68
21361;BME280;10839;43.206;23.550;2023-03-21T13:10:27;96842.44;;;21.10;40.83
21361;BME280;10839;43.206;23.550;2023-03-21T13:15:49;96829.41;;;21.42;40.32
21361;BME280;10839;43.206;23.550;2023-03-21T13:20:54;96820.47;;;20.90;41.40
21361;BME280;10839;43.206;23.550;2023-03-21T13:23:22;96819.75;;;21.09;41.18
21361;BME280;10839;43.206;23.550;2023-03-21T13:25:51;96816.66;;;20.91;41.73
21361;BME280;10839;43.206;23.550;2023-03-21T13:28:20;96812.81;;;20.35;42.61
21361;BME280;10839;43.206;23.550;2023-03-21T13:30:47;96814.59;;;20.61;42.67
21361;BME280;10839;43.206;23.550;2023-03-21T13:33:20;96821.28;;;20.33;42.77
21361;BME280;10839;43.206;23.550;2023-03-21T13:36:04;96818.38;;;20.13;43.43
21361;BME280;10839;43.206;23.550;2023-03-21T13:38:34;96811.69;;;19.89;43.82
21361;BME280;10839;43.206;23.550;2023-03-21T13:41:16;96813.47;;;20.10;43.63
21361;BME280;10839;43.206;23.550;2023-03-21T13:44:05;96819.66;;;20.33;43.69
21361;BME280;10839;43.206;23.550;2023-03-21T13:49:35;96802.19;;;19.65;44.98
21361;BME280;10839;43.206;23.550;2023-03-21T13:52:25;96803.72;;;20.19;44.16
21361;BME280;10839;43.206;23.550;2023-03-21T13:54:54;96811.78;;;20.04;44.18
21361;BME280;10839;43.206;23.550;2023-03-21T14:00:20;96801.44;;;19.75;44.96
21361;BME280;10839;43.206;23.550;2023-03-21T14:03:11;96803.00;;;19.97;44.69
21361;BME280;10839;43.206;23.550;2023-03-21T14:05:38;96792.75;;;19.46;45.51
21361;BME280;10839;43.206;23.550;2023-03-21T14:08:07;96802.44;;;19.32;46.09
21361;BME280;10839;43.206;23.550;2023-03-21T14:10:41;96799.94;;;19.57;45.67
21361;BME280;10839;43.206;23.550;2023-03-21T14:13:10;96800.84;;;19.68;45.36
21361;BME280;10839;43.206;23.550;2023-03-21T14:15:51;96804.28;;;19.90;44.77
21361;BME280;10839;43.206;23.550;2023-03-21T14:18:22;96796.97;;;19.32;46.14
21361;BME280;10839;43.206;23.550;2023-03-21T14:20:54;96789.47;;;19.44;45.54
21361;BME280;10839;43.206;23.550;2023-03-21T14:23:20;96791.63;;;19.42;45.32
21361;BME280;10839;43.206;23.550;2023-03-21T14:25:47;96790.44;;;19.11;45.93
21361;BME280;10839;43.206;23.550;2023-03-21T14:28:17;96794.47;;;19.04;45.95
21361;BME280;10839;43.206;23.550;2023-03-21T14:30:45;96782.03;;;19.13;45.14
21361;BME280;10839;43.206;23.550;2023-03-21T14:33:31;96794.59;;;19.14;45.21